Seguin, TX (78155)

6:17 PM CDT on May 03, 2015 (GMT -0500)
College Heights (South) | | Change Station
CLOSE
Current Station
Personal Weather Station
Location: Seguin, TX
Elevation: 551 ft
Nearby Weather Stations

Elev 551 ft 29.57 °N, 97.96 °W | Updated 4 minutes ago

Partly Cloudy
Partly Cloudy
81.3 °F
Feels Like 83 °F
N
1.7
Wind Variable Wind from ESE

Today
High -- | Low -- °F
--% Chance of Precip.
Yesterday
High -- | Low -- °F
Precip. -- in
6:48 AM 8:09 PM
Full, 100% visible
Pressure 29.91 in
Visibility 10.0 miles
Clouds Few 5000 ft
Scattered Clouds 6000 ft
Scattered Clouds 7500 ft
Heat Index 83 °F
Dew Point 64 °F
Humidity 56%
Rainfall 0.00 in
Snow Depth Not available.
UV 2 out of 12
Pollen 6.70 out of 12
Air Quality Not available.
Flu Activity Sporadic
METAR KBAZ 032251Z 16014KT 10SM FEW050 SCT060 SCT075 27/16 A2993 RMK AO2 WSHFT 2151 SLP128 T02720161

More Conditions Fewer Conditions

Pressure 29.91 in
Visibility 10.0 miles
Clouds Few 5000 ft
Scattered Clouds 6000 ft
Scattered Clouds 7500 ft
Heat Index 83 °F
Dew Point 64 °F
Humidity 56%
Rainfall 0.00 in
Snow Depth Not available.
UV 2 out of 12
Pollen 6.70 out of 12
Air Quality Not available.
Flu Activity Sporadic
METAR KBAZ 032251Z 16014KT 10SM FEW050 SCT060 SCT075 27/16 A2993 RMK AO2 WSHFT 2151 SLP128 T02720161

More Conditions Fewer Conditions

Nepal has a long way to go to dig out and rebuild from a devastating earthquake. We have teamed up with several charities and organizations to make contributing to the relief effort as easy as possible.
How you can help: Portlight Strategies | Red Cross

10-Day Weather Forecast

Almanac

Astronomy

May. 03, 2015 Rise Set
Actual Time
Civil Twilight
Nautical Twilight
Astronomical Twilight
Moon
Length of Visible Light
Length of Day
Tomorrow will be .
, % of the Moon is Illuminated

Today's Extremes

State Highs State Lows

Community

WunderPhotos

Upload Photos

1,818,412 photos uploaded!

WunderBlogs® & News

Nearby

Air Quality

  Air Quality AQ Index Pollutant
Not available.

Snow Depth

Station Depth Elevation

Earthquake Activity

City Distance Mag. Time & Date
Minimum magnitude displayed is 2.5.

Coastal Water Temperatures

Place Temperature

Stations

Nearby Weather Stations

Station Location Temp. Windchill Dew Point Humidity Wind Precip. Elev Updated Type